Time;durP1;ratioP1;P1;durP2;ratioP2;P2;SDS_P1;SDS_P2;PMS_P1;PMS_P2;Temp;Humidity;BMP_temperature;BMP_pressure;BME280_temperature;BME280_humidity;BME280_pressure;Samples;Min_cycle;Max_cycle;Signal;HPM_P1;HPM_P2
2022/04/26 03:37:45;;;;;;;;;32.00;29.67;;;;;10.20;58.93;101324.44;5065717;28;45409;-62
2022/04/26 03:40:10;;;;;;;;;34.67;29.67;;;;;10.19;58.98;101325.38;5066374;27;47105;-62
2022/04/26 03:42:36;;;;;;;;;28.00;26.67;;;;;10.20;58.98;101326.25;5072307;27;45463;-62
2022/04/26 03:45:01;;;;;;;;;38.67;30.33;;;;;10.18;59.30;101331.63;5071107;27;45377;-62
2022/04/26 03:47:27;;;;;;;;;38.33;32.00;;;;;10.17;59.26;101326.34;5064910;28;45476;-62
2022/04/26 03:49:52;;;;;;;;;36.33;26.33;;;;;10.18;58.98;101325.44;5070034;28;56492;-62
2022/04/26 03:52:19;;;;;;;;;34.33;26.33;;;;;10.16;59.46;101329.97;5067846;28;66612;-63
2022/04/26 03:54:45;;;;;;;;;31.67;31.67;;;;;10.16;59.43;101330.81;5067977;28;45330;-63
2022/04/26 03:57:10;;;;;;;;;31.33;26.67;;;;;10.17;59.42;101329.00;5073227;28;50613;-63
2022/04/26 03:59:36;;;;;;;;;37.00;28.67;;;;;10.19;59.23;101332.50;5061930;28;46196;-62
2022/04/26 04:02:01;;;;;;;;;29.00;28.33;;;;;10.19;59.46;101336.00;5066778;28;48838;-63
2022/04/26 04:04:26;;;;;;;;;31.33;31.33;;;;;10.20;59.18;101344.88;5067580;27;57719;-63
2022/04/26 04:06:52;;;;;;;;;32.67;29.67;;;;;10.20;59.27;101345.72;5065610;28;45410;-63
2022/04/26 04:09:17;;;;;;;;;33.33;30.33;;;;;10.18;59.52;101349.34;5066634;27;46817;-63
2022/04/26 04:11:43;;;;;;;;;43.33;34.00;;;;;10.16;59.57;101348.56;5063495;27;60885;-63
2022/04/26 04:14:08;;;;;;;;;37.67;32.00;;;;;10.11;59.44;101351.41;5068051;28;59519;-62
2022/04/26 04:16:33;;;;;;;;;37.00;31.00;;;;;10.07;59.52;101350.66;5067530;27;45335;-63
2022/04/26 04:21:43;;;;;;;;;32.00;29.33;;;;;10.03;59.71;101356.16;5063503;28;45476;-63
2022/04/26 04:24:08;;;;;;;;;34.33;31.33;;;;;10.07;59.71;101365.75;5058053;28;56517;-63
2022/04/26 04:26:33;;;;;;;;;36.33;31.33;;;;;10.16;59.54;101357.41;5068743;28;45473;-63
2022/04/26 04:28:59;;;;;;;;;34.67;28.00;;;;;10.22;59.46;101366.91;5065937;27;67185;-63
2022/04/26 04:31:24;;;;;;;;;34.33;26.33;;;;;10.21;59.35;101366.06;5064982;28;45287;-63
2022/04/26 04:33:49;;;;;;;;;39.00;31.67;;;;;10.19;59.22;101367.91;5070440;28;61563;-63
2022/04/26 04:36:15;;;;;;;;;39.67;35.00;;;;;10.17;59.28;101364.47;5071726;28;60819;-63
2022/04/26 04:38:40;;;;;;;;;31.33;29.00;;;;;10.16;59.38;101377.81;5071080;27;46182;-63
2022/04/26 04:41:06;;;;;;;;;37.33;31.00;;;;;10.12;59.41;101376.19;5064264;28;45413;-63
2022/04/26 04:43:32;;;;;;;;;32.00;30.67;;;;;10.05;59.50;101381.75;5072492;28;59919;-63
2022/04/26 04:45:57;;;;;;;;;27.33;25.33;;;;;10.02;59.65;101378.34;5064853;28;45457;-63
2022/04/26 04:48:22;;;;;;;;;37.33;31.00;;;;;10.00;59.87;101377.53;5062538;28;45274;-63
2022/04/26 04:50:48;;;;;;;;;33.00;30.00;;;;;10.00;59.88;101378.41;5057951;27;59806;-62
2022/04/26 04:53:13;;;;;;;;;38.33;36.00;;;;;10.01;59.77;101395.19;5062119;27;58789;-62
2022/04/26 04:55:40;;;;;;;;;39.67;31.00;;;;;10.04;59.66;101385.34;5067451;28;45329;-62
2022/04/26 04:58:05;;;;;;;;;36.33;31.67;;;;;10.14;59.95;101393.81;5059346;28;45402;-63
2022/04/26 05:00:31;;;;;;;;;33.00;28.00;;;;;10.20;59.63;101393.56;5070953;27;45413;-63
2022/04/26 05:02:56;;;;;;;;;42.33;36.00;;;;;10.24;59.53;101399.63;5062609;27;60446;-62
2022/04/26 05:05:22;;;;;;;;;38.00;31.33;;;;;10.24;59.63;101400.50;5070896;28;46759;-62
2022/04/26 05:07:47;;;;;;;;;37.33;32.67;;;;;10.23;59.64;101400.56;5061824;28;45583;-63
2022/04/26 05:10:13;;;;;;;;;39.00;32.00;;;;;10.22;59.70;101405.03;5078135;27;45350;-63
2022/04/26 05:12:38;;;;;;;;;42.50;33.75;;;;;10.25;59.59;101414.66;5058509;27;58735;-62
2022/04/26 05:15:04;;;;;;;;;38.00;32.00;;;;;10.31;59.53;101410.91;5070278;28;45300;-62
2022/04/26 05:17:30;;;;;;;;;22.67;17.00;;;;;10.36;59.62;101411.63;5073013;28;46807;-62
2022/04/26 05:19:55;;;;;;;;;35.67;32.00;;;;;10.43;59.32;101416.63;5062107;28;64333;-62
2022/04/26 05:22:21;;;;;;;;;42.00;36.00;;;;;10.53;59.43;101424.25;5066379;27;45437;-62
2022/04/26 05:24:58;;;;;;;;;33.67;30.33;;;;;10.57;59.22;101424.06;5063046;28;60157;-62
2022/04/26 05:27:25;;;;;;;;;35.00;30.67;;;;;10.65;59.10;101425.53;5075645;27;46290;-62
2022/04/26 05:29:51;;;;;;;;;37.00;33.67;;;;;10.72;59.09;101429.69;5065241;28;45281;-62
2022/04/26 05:32:24;;;;;;;;;42.67;37.00;;;;;10.80;59.00;101434.72;5063457;28;45533;-62
2022/04/26 05:34:58;;;;;;;;;42.33;33.00;;;;;10.82;58.82;101436.38;5069204;27;45989;-62
2022/04/26 05:37:23;;;;;;;;;45.00;34.67;;;;;10.88;58.78;101440.56;5068360;27;45402;-62
2022/04/26 05:39:49;;;;;;;;;42.00;35.00;;;;;10.93;58.65;101438.59;5066799;27;45374;-62
2022/04/26 05:42:14;;;;;;;;;41.00;34.33;;;;;11.01;58.48;101447.13;5074219;28;50621;-62
2022/04/26 05:44:40;;;;;;;;;49.33;38.00;;;;;11.12;58.45;101440.47;5069028;28;45829;-62
2022/04/26 05:47:10;;;;;;;;;47.67;36.00;;;;;11.16;58.18;101455.41;5065313;27;45999;-62
2022/04/26 05:49:36;;;;;;;;;43.00;37.00;;;;;11.15;58.42;101451.03;5079058;27;45608;-62
2022/04/26 05:52:02;;;;;;;;;49.67;35.00;;;;;11.17;58.49;101447.38;5067492;27;45428;-62
2022/04/26 05:54:28;;;;;;;;;41.00;37.00;;;;;11.19;58.08;101447.28;5081027;27;45351;-62
2022/04/26 05:56:53;;;;;;;;;48.50;37.25;;;;;11.22;58.02;101457.81;5073155;28;46009;-62
2022/04/26 05:59:19;;;;;;;;;45.67;37.00;;;;;11.23;58.07;101452.41;5063620;28;45628;-62
2022/04/26 06:01:45;;;;;;;;;47.67;35.67;;;;;11.22;58.14;101453.38;5067874;28;45599;-63
2022/04/26 06:04:11;;;;;;;;;48.00;35.67;;;;;11.24;58.27;101455.97;5064878;27;45732;-64
2022/04/26 06:06:36;;;;;;;;;45.33;37.67;;;;;11.29;58.15;101461.97;5046535;28;45312;-63
2022/04/26 06:09:03;;;;;;;;;54.00;40.67;;;;;11.35;58.15;101456.34;5053060;28;45265;-63
2022/04/26 06:11:28;;;;;;;;;54.00;42.75;;;;;11.45;57.37;101456.81;5070476;27;45480;-63
2022/04/26 06:13:53;;;;;;;;;50.33;38.67;;;;;11.53;57.55;101453.84;5069245;27;60810;-63
2022/04/26 06:16:19;;;;;;;;;50.00;39.33;;;;;11.55;57.93;101454.63;5066792;27;65843;-63
2022/04/26 06:18:44;;;;;;;;;58.75;41.25;;;;;11.64;57.43;101462.22;5071304;27;45916;-63
2022/04/26 06:21:10;;;;;;;;;54.25;42.00;;;;;11.72;57.40;101457.41;5071991;27;45452;-63
2022/04/26 06:23:35;;;;;;;;;60.50;44.75;;;;;11.76;57.17;101460.81;5070087;27;45738;-63
2022/04/26 06:26:01;;;;;;;;;56.75;43.50;;;;;11.75;57.05;101459.94;5064118;27;47841;-63
2022/04/26 06:28:27;;;;;;;;;58.50;43.75;;;;;11.82;57.24;101459.66;5063244;28;45834;-63
2022/04/26 06:30:54;;;;;;;;;53.50;42.25;;;;;11.90;57.47;101460.19;5069546;27;45440;-62
2022/04/26 06:33:19;;;;;;;;;58.00;44.25;;;;;11.99;57.12;101469.59;5061570;28;45512;-62
2022/04/26 06:35:44;;;;;;;;;63.50;49.75;;;;;11.96;57.08;101475.09;5068459;28;45887;-62
2022/04/26 06:38:10;;;;;;;;;61.75;44.25;;;;;12.01;57.27;101481.94;5065482;28;45375;-63
2022/04/26 06:40:35;;;;;;;;;57.50;43.25;;;;;12.08;57.21;101488.72;5062262;27;61784;-63
2022/04/26 06:43:00;;;;;;;;;57.25;42.50;;;;;12.06;57.01;101487.94;5061743;28;62162;-63
2022/04/26 06:45:26;;;;;;;;;57.00;45.25;;;;;12.02;57.05;101494.34;5062262;27;63050;-63
2022/04/26 06:47:54;;;;;;;;;58.25;45.50;;;;;11.95;57.17;101482.19;5069577;28;45306;-63
2022/04/26 06:50:19;;;;;;;;;59.50;45.75;;;;;11.90;57.45;101493.06;5073150;28;45664;-63
2022/04/26 06:52:45;;;;;;;;;61.00;49.00;;;;;11.87;57.41;101489.66;5063252;28;45284;-63
2022/04/26 06:55:10;;;;;;;;;67.75;49.00;;;;;11.83;57.56;101485.41;5074343;27;46280;-63
2022/04/26 06:57:36;;;;;;;;;64.00;50.00;;;;;11.83;57.82;101486.25;5069247;28;45382;-62
2022/04/26 07:00:04;;;;;;;;;68.50;51.50;;;;;11.88;57.49;101480.72;5066729;28;45437;-63
2022/04/26 07:02:29;;;;;;;;;68.00;51.00;;;;;12.06;57.58;101482.59;5067129;28;46367;-63
2022/04/26 07:04:56;;;;;;;;;60.00;45.25;;;;;12.35;57.31;101479.53;5068196;28;66493;-63
2022/04/26 07:07:22;;;;;;;;;60.00;46.50;;;;;12.57;56.80;101482.91;5069435;27;45577;-62
2022/04/26 07:09:47;;;;;;;;;65.50;50.00;;;;;12.67;56.58;101486.00;5066709;28;45508;-63
2022/04/26 07:12:13;;;;;;;;;66.00;47.50;;;;;12.71;56.42;101492.94;5067535;27;45252;-63
2022/04/26 07:14:38;;;;;;;;;62.25;50.25;;;;;12.84;56.29;101495.00;5070631;27;49543;-63
2022/04/26 07:17:03;;;;;;;;;65.50;49.00;;;;;12.96;55.99;101489.06;5071730;27;58560;-63
2022/04/26 07:19:30;;;;;;;;;65.75;50.25;;;;;13.05;55.74;101485.94;5075580;27;45645;-63
2022/04/26 07:21:55;;;;;;;;;67.25;50.75;;;;;13.17;55.37;101497.81;5059790;28;45481;-62
2022/04/26 07:24:21;;;;;;;;;64.25;49.25;;;;;13.24;55.14;101493.03;5065496;28;46012;-62
2022/04/26 07:26:46;;;;;;;;;59.50;45.50;;;;;13.31;55.04;101493.56;5063882;28;45645;-62
2022/04/26 07:29:14;;;;;;;;;63.75;50.25;;;;;13.42;54.70;101498.44;5065539;28;45419;-62
2022/04/26 07:31:39;;;;;;;;;71.75;54.00;;;;;13.99;55.30;101493.66;5068137;28;45760;-62
2022/04/26 07:34:23;;;;;;;;;65.00;49.25;;;;;15.08;53.12;101501.09;5072023;28;46078;-62
2022/04/26 07:37:02;;;;;;;;;63.00;51.25;;;;;16.20;51.63;101504.22;5068738;28;45635;-63
2022/04/26 07:39:29;;;;;;;;;67.50;51.00;;;;;17.52;50.11;101502.81;5064066;28;45399;-63
2022/04/26 07:41:54;;;;;;;;;64.50;49.25;;;;;17.84;48.42;101504.25;5071226;28;45450;-64
2022/04/26 07:44:20;;;;;;;;;62.50;50.25;;;;;17.44;47.42;101507.00;5067845;27;48054;-64
2022/04/26 07:46:47;;;;;;;;;62.25;49.25;;;;;16.87;47.86;101508.94;5064216;27;45329;-63
2022/04/26 07:49:12;;;;;;;;;60.00;47.25;;;;;16.32;48.56;101522.25;5065692;28;45532;-63
2022/04/26 07:51:38;;;;;;;;;62.50;47.75;;;;;15.86;48.94;101527.78;5064945;27;45535;-62
2022/04/26 07:54:04;;;;;;;;;64.00;48.25;;;;;15.43;49.41;101530.31;5055757;28;47163;-65
2022/04/26 07:56:31;;;;;;;;;61.25;48.25;;;;;15.11;50.34;101525.00;5059175;28;45729;-62
2022/04/26 07:58:58;;;;;;;;;62.50;47.00;;;;;15.05;50.37;101523.56;5065960;28;45386;-62
2022/04/26 08:01:26;;;;;;;;;64.00;47.75;;;;;15.36;50.17;101540.53;5068438;27;45514;-62
2022/04/26 08:03:52;;;;;;;;;59.33;46.00;;;;;15.35;49.98;101542.34;5072266;28;45398;-62
2022/04/26 08:06:17;;;;;;;;;60.00;44.67;;;;;15.21;49.24;101539.59;5067394;27;45269;-62
2022/04/26 08:08:43;;;;;;;;;60.00;46.75;;;;;15.07;49.75;101545.78;5071962;28;49842;-62
2022/04/26 08:11:12;;;;;;;;;60.00;46.00;;;;;15.12;49.50;101550.84;5062908;28;45736;-62
2022/04/26 08:13:38;;;;;;;;;63.50;48.75;;;;;15.71;49.33;101543.81;5063785;28;47170;-62
2022/04/26 08:16:03;;;;;;;;;59.33;46.67;;;;;17.84;45.43;101542.78;5068847;28;45428;-63
2022/04/26 08:18:29;;;;;;;;;57.00;44.67;;;;;19.75;44.19;101542.50;5064883;27;45329;-62
2022/04/26 08:20:55;;;;;;;;;55.00;45.33;;;;;20.88;42.14;101545.28;5067753;27;45275;-62
2022/04/26 08:23:21;;;;;;;;;59.33;47.00;;;;;22.11;40.43;101552.13;5067503;28;46254;-62
2022/04/26 08:28:31;;;;;;;;;59.67;44.67;;;;;24.90;35.42;101551.72;5070110;28;45408;-63
2022/04/26 08:30:56;;;;;;;;;56.67;43.67;;;;;25.93;34.09;101552.19;5057136;28;54581;-63
2022/04/26 08:33:22;;;;;;;;;59.67;43.33;;;;;25.69;33.76;101557.47;5058317;28;46172;-63
2022/04/26 08:35:48;;;;;;;;;52.33;42.33;;;;;26.36;32.13;101556.88;5063679;28;45362;-63
2022/04/26 08:38:13;;;;;;;;;50.33;41.33;;;;;27.44;32.64;101555.38;5071322;28;51298;-63
2022/04/26 08:40:43;;;;;;;;;52.00;40.67;;;;;27.78;28.56;101560.66;5058739;28;45571;-63
2022/04/26 08:43:08;;;;;;;;;55.00;42.00;;;;;26.66;31.00;101563.69;5058715;28;45450;-63
2022/04/26 08:45:33;;;;;;;;;48.67;37.33;;;;;24.84;29.46;101577.69;5061375;28;45508;-63
2022/04/26 08:53:28;;;;;;;;;52.67;43.33;;;;;20.57;35.39;101580.22;5058355;28;45724;-63
2022/04/26 08:55:55;;;;;;;;;49.00;41.00;;;;;20.76;36.54;101578.75;5071220;28;45397;-62
2022/04/26 08:58:21;;;;;;;;;51.00;41.00;;;;;22.93;35.08;101581.06;5074412;27;45308;-63
2022/04/26 09:01:04;;;;;;;;;58.33;43.67;;;;;23.86;31.40;101580.69;5066116;27;46624;-63
2022/04/26 09:03:31;;;;;;;;;56.67;43.33;;;;;23.26;32.25;101592.56;5063123;28;46191;-63
2022/04/26 09:06:25;;;;;;;;;54.33;42.67;;;;;22.28;33.98;101580.47;5065118;27;45374;-63
2022/04/26 09:08:50;;;;;;;;;47.00;38.00;;;;;21.41;35.13;101590.53;5060416;28;45364;-63
2022/04/26 09:11:27;;;;;;;;;55.33;45.67;;;;;20.90;35.07;101602.81;5063203;28;45408;-63
2022/04/26 09:13:53;;;;;;;;;51.67;41.67;;;;;20.55;36.56;101598.38;5070048;27;45336;-63
2022/04/26 09:16:20;;;;;;;;;53.00;44.00;;;;;20.44;36.41;101609.16;5066458;28;45276;-63
2022/04/26 09:18:59;;;;;;;;;57.00;42.67;;;;;19.89;37.06;101611.66;5065854;28;45361;-63
2022/04/26 09:21:27;;;;;;;;;53.00;42.00;;;;;19.10;37.61;101612.97;5067865;27;45489;-63
2022/04/26 09:23:57;;;;;;;;;58.67;43.00;;;;;18.27;39.05;101616.19;5076660;27;46260;-62
2022/04/26 09:26:22;;;;;;;;;54.00;42.33;;;;;17.64;40.51;101624.00;5067935;27;45475;-62
2022/04/26 09:28:50;;;;;;;;;55.33;43.67;;;;;17.10;41.02;101624.84;5071210;28;45821;-62
2022/04/26 09:31:22;;;;;;;;;49.00;38.00;;;;;16.66;42.07;101634.72;5061694;28;45473;-62
2022/04/26 09:33:49;;;;;;;;;52.67;43.00;;;;;16.40;42.62;101633.66;5069194;27;45398;-62
2022/04/26 09:36:16;;;;;;;;;53.67;42.67;;;;;16.18;42.91;101637.66;5068912;28;45796;-62
2022/04/26 09:38:48;;;;;;;;;55.33;42.33;;;;;16.02;43.16;101626.97;5070924;27;45370;-62
2022/04/26 09:41:14;;;;;;;;;53.33;42.00;;;;;15.99;43.92;101625.34;5069509;27;45441;-62
2022/04/26 09:43:39;;;;;;;;;53.33;42.67;;;;;15.95;43.84;101626.47;5069376;27;67516;-62
2022/04/26 09:46:06;;;;;;;;;56.67;45.67;;;;;15.88;44.44;101639.41;5063025;27;45472;-62
2022/04/26 09:48:35;;;;;;;;;60.67;47.00;;;;;15.68;44.30;101631.63;5064773;27;45369;-62
2022/04/26 09:51:01;;;;;;;;;60.00;48.33;;;;;15.48;45.23;101644.38;5064031;27;45444;-62
2022/04/26 09:53:26;;;;;;;;;55.00;44.33;;;;;15.30;45.74;101643.59;5067230;27;46153;-62
2022/04/26 09:55:56;;;;;;;;;64.67;46.67;;;;;15.14;46.37;101646.28;5063981;28;45300;-62
2022/04/26 09:58:21;;;;;;;;;57.33;44.00;;;;;14.99;46.20;101642.66;5065582;28;45340;-62
2022/04/26 10:00:49;;;;;;;;;54.67;43.33;;;;;14.85;46.15;101658.63;5074096;27;45419;-62
2022/04/26 10:03:16;;;;;;;;;50.67;41.33;;;;;14.77;46.62;101644.75;5071875;27;47277;-62
2022/04/26 10:05:42;;;;;;;;;55.33;44.00;;;;;14.75;46.65;101658.25;5061671;27;45841;-62
2022/04/26 10:08:07;;;;;;;;;58.00;44.67;;;;;14.78;47.16;101663.41;5063277;28;45528;-62
2022/04/26 10:10:32;;;;;;;;;59.33;45.67;;;;;14.78;46.98;101657.22;5062723;28;59146;-62
2022/04/26 10:15:42;;;;;;;;;51.67;42.33;;;;;14.78;46.61;101652.72;5066915;27;46717;-63
2022/04/26 10:18:35;;;;;;;;;55.33;43.33;;;;;14.92;46.83;101653.78;5074678;27;45488;-63
2022/04/26 10:21:02;;;;;;;;;52.33;40.67;;;;;15.16;46.57;101651.53;5067562;28;45595;-63
2022/04/26 10:23:27;;;;;;;;;58.00;43.00;;;;;15.30;46.08;101657.00;5071002;27;46090;-66
2022/04/26 10:28:49;;;;;;;;;55.00;43.67;;;;;15.86;45.53;101652.03;5065460;27;45404;-67
2022/04/26 10:31:15;;;;;;;;;56.00;44.67;;;;;16.15;45.17;101646.75;5066945;27;45736;-67
2022/04/26 10:33:41;;;;;;;;;49.33;39.67;;;;;16.96;44.12;101661.53;5071243;27;46439;-67
2022/04/26 10:36:31;;;;;;;;;56.00;41.67;;;;;17.94;42.59;101647.13;5068614;27;45430;-68
2022/04/26 10:39:06;;;;;;;;;54.33;43.00;;;;;18.41;41.72;101658.28;5078225;28;45408;-67
2022/04/26 10:41:38;;;;;;;;;52.33;41.67;;;;;18.44;41.16;101652.69;5072932;27;45532;-61
2022/04/26 10:44:12;;;;;;;;;49.00;40.00;;;;;18.41;40.54;101656.47;5070704;28;45502;-61
2022/04/26 10:46:38;;;;;;;;;53.00;44.33;;;;;18.30;40.77;101649.16;5079484;27;45353;-61
2022/04/26 10:49:29;;;;;;;;;49.33;40.00;;;;;18.06;41.31;101653.53;5060096;28;45332;-61
2022/04/26 10:51:55;;;;;;;;;52.33;44.00;;;;;17.80;41.65;101654.28;5065229;28;45343;-61
2022/04/26 10:54:45;;;;;;;;;52.67;42.00;;;;;17.58;42.02;101662.91;5065770;27;46309;-61
2022/04/26 10:57:10;;;;;;;;;52.33;41.00;;;;;17.49;41.74;101659.00;5077364;28;45310;-70
2022/04/26 10:59:45;;;;;;;;;54.00;41.67;;;;;17.40;42.62;101661.44;5074065;27;45423;-63
2022/04/26 11:02:18;;;;;;;;;53.00;41.33;;;;;17.23;42.25;101666.06;5068338;28;45258;-67
2022/04/26 11:04:43;;;;;;;;;52.67;40.00;;;;;17.00;42.30;101663.06;5071594;27;45397;-65
2022/04/26 11:07:16;;;;;;;;;52.67;41.67;;;;;16.80;43.25;101671.47;5066903;27;45603;-67
2022/04/26 11:09:46;;;;;;;;;47.33;38.00;;;;;16.81;43.48;101663.31;5059491;28;45379;-67
2022/04/26 11:12:12;;;;;;;;;48.67;39.00;;;;;17.02;43.08;101661.13;5067277;27;45322;-67
2022/04/26 11:14:40;;;;;;;;;53.33;41.67;;;;;17.10;42.80;101657.09;5059118;28;65037;-67
2022/04/26 11:17:06;;;;;;;;;46.67;39.00;;;;;17.26;43.12;101654.25;5059813;28;45509;-68
2022/04/26 11:19:38;;;;;;;;;47.00;37.00;;;;;17.50;42.76;101655.34;5071793;28;45379;-67
2022/04/26 11:22:07;;;;;;;;;48.33;40.33;;;;;17.76;42.13;101654.59;5069137;27;45476;-67
2022/04/26 11:30:02;;;;;;;;;41.67;34.67;;;;;18.88;40.69;101643.28;5066258;28;45505;-68
2022/04/26 11:32:31;;;;;;;;;46.67;39.00;;;;;18.87;40.67;101644.25;5070748;28;45508;-67
2022/04/26 11:34:57;;;;;;;;;47.00;35.67;;;;;18.86;40.66;101645.22;5062716;27;46724;-67
2022/04/26 11:37:22;;;;;;;;;44.67;37.00;;;;;18.85;40.30;101648.88;5060182;28;55349;-67
2022/04/26 11:39:48;;;;;;;;;46.33;38.00;;;;;18.90;40.70;101653.97;5075290;28;45472;-67
2022/04/26 11:42:13;;;;;;;;;51.67;38.33;;;;;18.84;40.72;101655.28;5057958;28;61971;-65
2022/04/26 11:44:58;;;;;;;;;40.67;35.00;;;;;18.72;40.46;101657.00;5050303;28;45402;-66
2022/04/26 11:52:43;;;;;;;;;42.33;36.00;;;;;18.12;40.53;101664.72;5344859;22;45622;-68
2022/04/26 11:55:17;;;;;;;;;45.00;34.67;;;;;18.03;41.19;101659.97;4974956;28;45540;-68
2022/04/26 11:57:42;;;;;;;;;45.00;36.00;;;;;18.08;40.97;101654.25;4995051;28;45508;-68
2022/04/26 12:00:08;;;;;;;;;45.00;34.00;;;;;18.56;40.95;101653.66;4996723;28;45796;-68
2022/04/26 12:02:34;;;;;;;;;40.33;34.33;;;;;19.18;40.14;101650.16;4981563;28;45481;-67
2022/04/26 12:05:00;;;;;;;;;43.00;34.00;;;;;19.40;39.15;101649.44;4963512;28;46972;-67
2022/04/26 12:07:25;;;;;;;;;43.33;35.67;;;;;19.13;39.34;101660.41;4996289;28;64573;-67
2022/04/26 12:09:52;;;;;;;;;46.33;36.67;;;;;18.84;39.55;101644.50;4982900;28;45260;-68
2022/04/26 12:12:18;;;;;;;;;43.33;34.67;;;;;18.58;39.39;101663.38;4998311;28;45444;-69
2022/04/26 12:14:43;;;;;;;;;42.33;35.00;;;;;18.45;39.97;101659.81;4979952;28;47174;-68
2022/04/26 12:17:18;;;;;;;;;38.00;32.00;;;;;18.42;40.66;101655.50;4977296;28;45450;-67
2022/04/26 12:19:50;;;;;;;;;44.67;36.33;;;;;18.72;40.45;101654.31;4997976;28;45337;-65
2022/04/26 12:22:16;;;;;;;;;41.33;34.00;;;;;19.15;40.53;101664.72;4997755;28;45415;-66
2022/04/26 12:24:48;;;;;;;;;41.00;34.33;;;;;19.47;38.71;101663.31;4997691;28;46361;-67
2022/04/26 12:27:14;;;;;;;;;37.33;31.67;;;;;19.58;38.93;101665.22;4997750;28;45419;-66
2022/04/26 12:29:41;;;;;;;;;40.67;33.33;;;;;19.78;38.14;101666.44;4997854;28;45344;-66
2022/04/26 12:32:08;;;;;;;;;34.33;32.00;;;;;19.74;38.81;101664.94;4980705;28;45507;-62
2022/04/26 12:34:34;;;;;;;;;40.00;33.67;;;;;19.70;38.63;101658.91;4997823;28;46178;-62
2022/04/26 12:37:11;;;;;;;;;35.33;30.67;;;;;19.66;38.26;101652.03;4996895;28;45536;-62
2022/04/26 12:39:43;;;;;;;;;29.33;26.00;;;;;19.47;37.49;101648.00;4997233;28;45617;-62
2022/04/26 12:42:27;;;;;;;;;33.00;31.67;;;;;19.37;37.31;101646.09;4998005;28;45706;-62
2022/04/26 12:44:54;;;;;;;;;31.00;27.00;;;;;19.24;37.90;101648.84;4991532;28;45416;-63
2022/04/26 12:52:48;;;;;;;;;30.00;30.00;;;;;19.50;37.60;101647.78;5000407;28;45742;-63
2022/04/26 12:55:26;;;;;;;;;31.00;29.33;;;;;19.46;37.80;101643.59;5001601;28;46263;-63
2022/04/26 12:57:53;;;;;;;;;26.67;26.00;;;;;19.60;38.28;101629.03;5000757;28;45376;-63
2022/04/26 13:00:20;;;;;;;;;34.00;27.33;;;;;19.78;36.64;101634.88;5000488;28;45536;-63
2022/04/26 13:02:49;;;;;;;;;27.33;21.00;;;;;19.78;36.32;101631.34;5000808;28;45675;-63
2022/04/26 13:05:15;;;;;;;;;26.67;24.33;;;;;19.66;36.66;101630.44;5001365;28;46102;-63
2022/04/26 13:07:41;;;;;;;;;24.67;24.33;;;;;19.63;36.90;101626.13;5000167;28;45345;-63
2022/04/26 13:10:06;;;;;;;;;25.67;24.67;;;;;19.56;37.21;101624.88;4996498;28;45879;-63
2022/04/26 13:12:32;;;;;;;;;33.00;29.00;;;;;19.60;37.28;101620.94;5001157;28;46613;-63
2022/04/26 13:14:59;;;;;;;;;27.00;26.00;;;;;19.72;36.98;101624.56;4999982;28;67730;-63
2022/04/26 13:17:24;;;;;;;;;27.00;26.33;;;;;19.97;37.32;101623.59;4980834;28;45459;-63
2022/04/26 13:19:50;;;;;;;;;24.33;24.00;;;;;20.20;36.14;101623.63;4982466;28;56413;-63
2022/04/26 13:22:16;;;;;;;;;28.00;28.00;;;;;20.20;35.59;101626.34;4999941;28;45396;-63
2022/04/26 13:24:42;;;;;;;;;23.33;21.67;;;;;20.02;36.53;101616.97;5000672;28;46947;-62
2022/04/26 13:27:07;;;;;;;;;26.33;24.33;;;;;19.99;36.08;101618.06;5000749;28;45923;-62
2022/04/26 13:29:33;;;;;;;;;23.00;23.00;;;;;20.08;36.73;101613.81;5000685;28;45515;-63
2022/04/26 13:31:58;;;;;;;;;23.00;23.00;;;;;20.18;35.42;101622.91;4999912;28;60927;-62
2022/04/26 13:34:24;;;;;;;;;26.67;22.33;;;;;20.07;36.14;101615.63;5000950;28;45883;-63
2022/04/26 13:36:49;;;;;;;;;29.33;25.33;;;;;20.07;36.02;101612.06;5000600;28;45679;-63
2022/04/26 13:39:14;;;;;;;;;26.00;26.00;;;;;20.13;36.30;101609.75;4999932;28;58524;-63
2022/04/26 13:41:40;;;;;;;;;26.67;25.00;;;;;20.14;36.09;101600.69;4999632;28;48013;-63
2022/04/26 13:44:05;;;;;;;;;24.33;22.33;;;;;19.98;36.05;101602.84;5000355;28;45214;-62
2022/04/26 13:46:31;;;;;;;;;30.33;27.00;;;;;19.85;36.11;101592.13;5000045;28;45556;-63
2022/04/26 13:48:56;;;;;;;;;23.33;21.67;;;;;19.72;36.66;101596.72;4999737;28;45840;-62
2022/04/26 13:51:24;;;;;;;;;27.67;24.00;;;;;19.65;37.16;101599.88;5000160;28;59715;-62
2022/04/26 13:53:50;;;;;;;;;27.67;23.00;;;;;19.63;36.90;101593.75;4999281;28;46384;-62
2022/04/26 13:56:15;;;;;;;;;27.00;22.67;;;;;19.59;37.01;101592.25;5000206;28;45452;-63
2022/04/26 13:58:41;;;;;;;;;27.33;25.67;;;;;19.59;36.90;101586.84;4981247;28;45487;-62
2022/04/26 14:01:06;;;;;;;;;24.67;23.00;;;;;19.77;37.09;101584.59;4998826;28;62026;-62
2022/04/26 14:03:32;;;;;;;;;24.33;23.67;;;;;19.89;36.60;101579.25;5000100;28;46763;-62
2022/04/26 14:05:58;;;;;;;;;23.00;21.33;;;;;19.89;36.48;101579.25;4999590;28;45467;-62
2022/04/26 14:08:23;;;;;;;;;29.33;23.33;;;;;19.80;35.79;101583.50;4999871;28;45356;-62
2022/04/26 14:10:49;;;;;;;;;31.33;24.00;;;;;19.54;36.27;101591.72;4999094;28;45416;-62
2022/04/26 14:13:14;;;;;;;;;28.00;27.33;;;;;19.38;36.55;101583.09;5002389;28;45327;-61
2022/04/26 14:24:04;;;;;;;;;28.67;22.00;;;;;19.14;37.08;101586.66;4992220;28;45415;-62
2022/04/26 14:26:29;;;;;;;;;23.00;19.33;;;;;19.13;36.91;101579.53;4988944;28;46676;-62
2022/04/26 14:28:55;;;;;;;;;17.67;15.67;;;;;19.10;36.25;101591.41;4989877;28;45452;-63
2022/04/26 14:31:20;;;;;;;;;23.00;21.67;;;;;19.04;36.32;101586.44;4991694;28;61738;-63
2022/04/26 14:33:45;;;;;;;;;23.33;21.00;;;;;19.02;36.86;101585.72;4974818;28;66826;-63
2022/04/26 14:36:11;;;;;;;;;24.67;19.67;;;;;19.04;36.76;101586.44;4993311;28;60912;-63
2022/04/26 14:38:36;;;;;;;;;20.33;19.00;;;;;19.03;36.84;101587.41;4998166;28;45303;-63
2022/04/26 14:41:02;;;;;;;;;19.67;19.67;;;;;18.95;36.93;101589.81;4980420;28;52016;-64
2022/04/26 14:43:27;;;;;;;;;21.33;20.00;;;;;18.80;36.64;101589.09;4993073;28;67564;-63
2022/04/26 14:45:55;;;;;;;;;21.33;20.67;;;;;18.54;37.05;101589.13;4998855;28;45507;-63
2022/04/26 14:48:20;;;;;;;;;22.33;19.00;;;;;18.37;37.48;101584.94;4998851;28;45380;-63
2022/04/26 14:50:45;;;;;;;;;22.67;20.67;;;;;18.25;37.83;101593.88;4998625;28;45477;-63
2022/04/26 14:53:11;;;;;;;;;24.67;19.33;;;;;18.09;38.11;101586.00;4997518;28;45982;-63
2022/04/26 14:55:36;;;;;;;;;19.33;19.33;;;;;17.95;37.52;101587.84;4999115;28;45441;-63
2022/04/26 14:58:02;;;;;;;;;19.67;18.33;;;;;17.90;37.95;101579.19;4999152;28;45358;-64
2022/04/26 15:00:28;;;;;;;;;18.00;16.00;;;;;17.90;38.12;101583.69;4999309;28;45673;-63
2022/04/26 15:02:53;;;;;;;;;22.00;20.33;;;;;17.91;38.57;101588.09;4998506;28;62061;-62
2022/04/26 15:05:19;;;;;;;;;16.00;16.00;;;;;17.99;38.24;101583.06;4999025;28;45681;-62
2022/04/26 15:10:29;;;;;;;;;18.67;18.33;;;;;18.34;38.21;101572.56;4997811;28;45523;-63
2022/04/26 15:18:22;;;;;;;;;19.33;14.67;;;;;18.85;36.42;101573.41;4998624;28;45475;-63
2022/04/26 15:20:51;;;;;;;;;15.33;12.67;;;;;18.74;36.46;101574.22;4999653;28;45540;-63
2022/04/26 15:23:17;;;;;;;;;13.33;12.00;;;;;18.58;36.58;101579.84;4998445;28;46120;-63
2022/04/26 15:25:50;;;;;;;;;13.67;13.67;;;;;18.50;36.51;101580.41;4997073;28;45158;-63
2022/04/26 15:28:16;;;;;;;;;14.33;12.00;;;;;18.40;36.25;101582.03;5002381;28;45451;-63
2022/04/26 15:30:42;;;;;;;;;14.33;13.33;;;;;18.33;36.45;101580.75;4995247;28;45872;-63
2022/04/26 15:33:07;;;;;;;;;16.00;14.33;;;;;18.24;36.45;101575.97;4979970;28;46126;-63
2022/04/26 15:35:33;;;;;;;;;13.33;13.00;;;;;18.27;36.34;101587.41;4995588;28;45671;-63